sensor_id;sensor_type;location;lat;lon;timestamp;pressure;altitude;pressure_sealevel;temperature;humidity
61205;BME280;47068;55.780;37.520;2023-04-27T00:02:07;99137.97;;;11.52;70.10
61205;BME280;47068;55.780;37.520;2023-04-27T00:04:32;99131.06;;;11.42;69.78
61205;BME280;47068;55.780;37.520;2023-04-27T00:06:58;99148.44;;;11.53;69.50
61205;BME280;47068;55.780;37.520;2023-04-27T00:09:23;99109.56;;;11.29;69.85
61205;BME280;47068;55.780;37.520;2023-04-27T00:11:49;99149.91;;;11.56;70.07
61205;BME280;47068;55.780;37.520;2023-04-27T00:14:14;99157.28;;;11.54;70.11
61205;BME280;47068;55.780;37.520;2023-04-27T00:16:40;99152.31;;;11.51;69.89
61205;BME280;47068;55.780;37.520;2023-04-27T00:19:05;99153.78;;;11.53;69.96
61205;BME280;47068;55.780;37.520;2023-04-27T00:21:32;99165.38;;;11.60;70.28
61205;BME280;47068;55.780;37.520;2023-04-27T00:23:58;99160.94;;;11.53;69.91
61205;BME280;47068;55.780;37.520;2023-04-27T00:26:23;99165.72;;;11.57;69.51
61205;BME280;47068;55.780;37.520;2023-04-27T00:28:49;99178.78;;;11.67;70.14
61205;BME280;47068;55.780;37.520;2023-04-27T00:31:14;99179.13;;;11.64;70.23
61205;BME280;47068;55.780;37.520;2023-04-27T00:33:39;99159.94;;;11.54;70.29
61205;BME280;47068;55.780;37.520;2023-04-27T00:36:05;99182.44;;;11.66;70.08
61205;BME280;47068;55.780;37.520;2023-04-27T00:38:31;99182.44;;;11.66;69.79
61205;BME280;47068;55.780;37.520;2023-04-27T00:41:01;99178.13;;;11.65;69.77
61205;BME280;47068;55.780;37.520;2023-04-27T00:43:26;99182.81;;;11.63;69.95
61205;BME280;47068;55.780;37.520;2023-04-27T00:45:52;99168.19;;;11.59;69.79
61205;BME280;47068;55.780;37.520;2023-04-27T00:48:17;99165.06;;;11.55;69.58
61205;BME280;47068;55.780;37.520;2023-04-27T00:50:43;99184.09;;;11.67;69.82
61205;BME280;47068;55.780;37.520;2023-04-27T00:53:08;99172.78;;;11.65;70.33
61205;BME280;47068;55.780;37.520;2023-04-27T00:55:34;99163.59;;;11.53;70.40
61205;BME280;47068;55.780;37.520;2023-04-27T00:57:59;99153.69;;;11.47;70.71
61205;BME280;47068;55.780;37.520;2023-04-27T01:00:25;99170.69;;;11.45;70.39
61205;BME280;47068;55.780;37.520;2023-04-27T01:02:51;99173.69;;;11.42;71.14
61205;BME280;47068;55.780;37.520;2023-04-27T01:05:18;99121.09;;;11.07;70.76
61205;BME280;47068;55.780;37.520;2023-04-27T01:07:43;99181.22;;;11.39;70.91
61205;BME280;47068;55.780;37.520;2023-04-27T01:10:09;99171.75;;;11.36;71.20
61205;BME280;47068;55.780;37.520;2023-04-27T01:12:35;99173.75;;;11.34;71.47
61205;BME280;47068;55.780;37.520;2023-04-27T01:15:00;99175.06;;;11.38;71.71
61205;BME280;47068;55.780;37.520;2023-04-27T01:17:25;99128.56;;;11.12;71.39
61205;BME280;47068;55.780;37.520;2023-04-27T01:19:51;99170.56;;;11.39;71.47
61205;BME280;47068;55.780;37.520;2023-04-27T01:22:22;99170.28;;;11.49;71.00
61205;BME280;47068;55.780;37.520;2023-04-27T01:24:48;99174.44;;;11.51;71.12
61205;BME280;47068;55.780;37.520;2023-04-27T01:27:13;99175.81;;;11.47;71.64
61205;BME280;47068;55.780;37.520;2023-04-27T01:29:39;99176.19;;;11.44;71.74
61205;BME280;47068;55.780;37.520;2023-04-27T01:32:04;99176.72;;;11.39;71.88
61205;BME280;47068;55.780;37.520;2023-04-27T01:34:30;99173.41;;;11.37;72.21
61205;BME280;47068;55.780;37.520;2023-04-27T01:36:55;99160.25;;;11.21;72.34
61205;BME280;47068;55.780;37.520;2023-04-27T01:39:21;99175.44;;;11.35;72.22
61205;BME280;47068;55.780;37.520;2023-04-27T01:41:47;99178.75;;;11.37;71.80
61205;BME280;47068;55.780;37.520;2023-04-27T01:44:12;99177.81;;;11.30;72.32
61205;BME280;47068;55.780;37.520;2023-04-27T01:46:38;99182.13;;;11.31;72.22
61205;BME280;47068;55.780;37.520;2023-04-27T01:49:04;99185.53;;;11.25;72.59
61205;BME280;47068;55.780;37.520;2023-04-27T01:51:29;99176.88;;;11.23;72.09
61205;BME280;47068;55.780;37.520;2023-04-27T01:53:55;99173.00;;;11.11;72.30
61205;BME280;47068;55.780;37.520;2023-04-27T01:56:20;99168.47;;;10.97;72.42
61205;BME280;47068;55.780;37.520;2023-04-27T01:58:46;99143.19;;;10.78;72.76
61205;BME280;47068;55.780;37.520;2023-04-27T02:01:11;99159.78;;;10.80;73.13
61205;BME280;47068;55.780;37.520;2023-04-27T02:03:37;99160.59;;;10.81;72.92
61205;BME280;47068;55.780;37.520;2023-04-27T02:06:02;99171.53;;;10.86;73.30
61205;BME280;47068;55.780;37.520;2023-04-27T02:08:28;99183.13;;;10.93;73.29
61205;BME280;47068;55.780;37.520;2023-04-27T02:10:53;99175.84;;;10.87;72.74
61205;BME280;47068;55.780;37.520;2023-04-27T02:13:19;99189.94;;;10.95;73.17
61205;BME280;47068;55.780;37.520;2023-04-27T02:15:45;99177.34;;;10.89;73.06
61205;BME280;47068;55.780;37.520;2023-04-27T02:18:11;99194.78;;;10.92;73.34
61205;BME280;47068;55.780;37.520;2023-04-27T02:20:36;99192.66;;;10.87;73.17
61205;BME280;47068;55.780;37.520;2023-04-27T02:23:02;99204.25;;;10.94;73.53
61205;BME280;47068;55.780;37.520;2023-04-27T02:25:27;99210.38;;;10.95;72.92
61205;BME280;47068;55.780;37.520;2023-04-27T02:27:53;99218.53;;;10.93;73.54
61205;BME280;47068;55.780;37.520;2023-04-27T02:30:18;99221.22;;;10.93;73.71
61205;BME280;47068;55.780;37.520;2023-04-27T02:32:45;99203.13;;;10.89;73.77
61205;BME280;47068;55.780;37.520;2023-04-27T02:35:12;99212.75;;;10.90;73.67
61205;BME280;47068;55.780;37.520;2023-04-27T02:37:37;99216.25;;;10.90;73.65
61205;BME280;47068;55.780;37.520;2023-04-27T02:40:03;99228.25;;;10.86;73.73
61205;BME280;47068;55.780;37.520;2023-04-27T02:42:31;99226.41;;;10.87;73.36
61205;BME280;47068;55.780;37.520;2023-04-27T02:44:57;99227.06;;;10.89;73.26
61205;BME280;47068;55.780;37.520;2023-04-27T02:47:22;99234.34;;;10.95;73.64
61205;BME280;47068;55.780;37.520;2023-04-27T02:49:47;99231.34;;;10.98;73.64
61205;BME280;47068;55.780;37.520;2023-04-27T02:52:13;99227.69;;;10.99;73.62
61205;BME280;47068;55.780;37.520;2023-04-27T02:54:38;99228.84;;;10.96;73.53
61205;BME280;47068;55.780;37.520;2023-04-27T02:57:04;99239.50;;;10.96;73.46
61205;BME280;47068;55.780;37.520;2023-04-27T02:59:29;99237.00;;;10.95;73.76
61205;BME280;47068;55.780;37.520;2023-04-27T03:01:55;99240.16;;;10.98;73.95
61205;BME280;47068;55.780;37.520;2023-04-27T03:04:20;99236.28;;;11.01;74.19
61205;BME280;47068;55.780;37.520;2023-04-27T03:06:46;99235.25;;;11.10;74.12
61205;BME280;47068;55.780;37.520;2023-04-27T03:09:11;99241.34;;;11.19;73.87
61205;BME280;47068;55.780;37.520;2023-04-27T03:11:38;99246.94;;;11.24;73.60
61205;BME280;47068;55.780;37.520;2023-04-27T03:14:03;99246.38;;;11.28;73.81
61205;BME280;47068;55.780;37.520;2023-04-27T03:16:32;99237.06;;;11.32;73.57
61205;BME280;47068;55.780;37.520;2023-04-27T03:18:58;99250.94;;;11.42;73.51
61205;BME280;47068;55.780;37.520;2023-04-27T03:21:24;99239.28;;;11.43;73.61
61205;BME280;47068;55.780;37.520;2023-04-27T03:23:51;99246.03;;;11.54;73.04
61205;BME280;47068;55.780;37.520;2023-04-27T03:26:16;99226.53;;;11.54;72.85
61205;BME280;47068;55.780;37.520;2023-04-27T03:28:43;99223.41;;;11.65;72.97
61205;BME280;47068;55.780;37.520;2023-04-27T03:31:10;99221.84;;;11.70;72.18
61205;BME280;47068;55.780;37.520;2023-04-27T03:33:36;99242.88;;;11.88;72.78
61205;BME280;47068;55.780;37.520;2023-04-27T03:36:02;99254.25;;;11.97;72.48
61205;BME280;47068;55.780;37.520;2023-04-27T03:38:29;99259.59;;;12.11;72.04
61205;BME280;47068;55.780;37.520;2023-04-27T03:40:55;99264.09;;;12.26;71.89
61205;BME280;47068;55.780;37.520;2023-04-27T03:43:21;99270.16;;;12.49;71.04
61205;BME280;47068;55.780;37.520;2023-04-27T03:45:47;99274.06;;;12.68;70.49
61205;BME280;47068;55.780;37.520;2023-04-27T03:48:13;99270.72;;;12.80;70.10
61205;BME280;47068;55.780;37.520;2023-04-27T03:50:40;99248.34;;;12.81;69.64
61205;BME280;47068;55.780;37.520;2023-04-27T03:53:05;99279.13;;;13.13;69.06
61205;BME280;47068;55.780;37.520;2023-04-27T03:55:31;99252.13;;;13.08;67.50
61205;BME280;47068;55.780;37.520;2023-04-27T03:57:57;99266.97;;;13.32;66.44
61205;BME280;47068;55.780;37.520;2023-04-27T04:00:22;99277.41;;;13.48;66.20
61205;BME280;47068;55.780;37.520;2023-04-27T04:02:48;99267.19;;;13.58;65.71
61205;BME280;47068;55.780;37.520;2023-04-27T04:05:13;99253.19;;;13.56;65.08
61205;BME280;47068;55.780;37.520;2023-04-27T04:07:39;99251.00;;;13.66;65.03
61205;BME280;47068;55.780;37.520;2023-04-27T04:10:09;99279.72;;;13.86;64.38
61205;BME280;47068;55.780;37.520;2023-04-27T04:12:35;99267.00;;;13.88;64.66
61205;BME280;47068;55.780;37.520;2023-04-27T04:15:02;99285.88;;;14.14;64.40
61205;BME280;47068;55.780;37.520;2023-04-27T04:17:28;99287.03;;;14.33;63.62
61205;BME280;47068;55.780;37.520;2023-04-27T04:19:53;99286.75;;;14.55;63.37
61205;BME280;47068;55.780;37.520;2023-04-27T04:22:19;99291.78;;;14.72;60.80
61205;BME280;47068;55.780;37.520;2023-04-27T04:24:44;99296.38;;;14.91;60.05
61205;BME280;47068;55.780;37.520;2023-04-27T04:27:10;99295.78;;;15.02;60.75
61205;BME280;47068;55.780;37.520;2023-04-27T04:29:35;99263.38;;;14.84;60.25
61205;BME280;47068;55.780;37.520;2023-04-27T04:32:00;99284.84;;;14.97;60.10
61205;BME280;47068;55.780;37.520;2023-04-27T04:34:26;99289.03;;;15.13;59.42
61205;BME280;47068;55.780;37.520;2023-04-27T04:36:53;99290.06;;;15.18;57.26
61205;BME280;47068;55.780;37.520;2023-04-27T04:39:21;99249.00;;;14.98;56.12
61205;BME280;47068;55.780;37.520;2023-04-27T04:41:47;99296.47;;;15.37;57.09
61205;BME280;47068;55.780;37.520;2023-04-27T04:44:15;99294.03;;;15.49;57.42
61205;BME280;47068;55.780;37.520;2023-04-27T04:46:41;99203.03;;;15.01;56.10
61205;BME280;47068;55.780;37.520;2023-04-27T04:49:07;99276.50;;;15.66;55.79
61205;BME280;47068;55.780;37.520;2023-04-27T04:51:33;99278.13;;;16.00;56.34
61205;BME280;47068;55.780;37.520;2023-04-27T04:53:58;99289.03;;;16.89;53.97
61205;BME280;47068;55.780;37.520;2023-04-27T04:56:24;99291.84;;;17.95;51.31
61205;BME280;47068;55.780;37.520;2023-04-27T04:58:49;99291.31;;;19.14;48.81
61205;BME280;47068;55.780;37.520;2023-04-27T05:01:15;99296.41;;;19.63;47.46
61205;BME280;47068;55.780;37.520;2023-04-27T05:03:41;99289.97;;;19.99;46.47
61205;BME280;47068;55.780;37.520;2023-04-27T05:06:07;99296.78;;;20.60;44.04
61205;BME280;47068;55.780;37.520;2023-04-27T05:08:32;99258.25;;;20.53;41.99
61205;BME280;47068;55.780;37.520;2023-04-27T05:10:57;99295.59;;;20.56;42.35
61205;BME280;47068;55.780;37.520;2023-04-27T05:13:23;99297.56;;;20.61;42.52
61205;BME280;47068;55.780;37.520;2023-04-27T05:15:51;99288.94;;;20.75;42.35
61205;BME280;47068;55.780;37.520;2023-04-27T05:18:18;99302.81;;;21.47;40.52
61205;BME280;47068;55.780;37.520;2023-04-27T05:20:43;99303.13;;;22.34;39.14
61205;BME280;47068;55.780;37.520;2023-04-27T05:23:09;99297.53;;;23.55;37.22
61205;BME280;47068;55.780;37.520;2023-04-27T05:25:35;99297.09;;;24.42;36.06
61205;BME280;47068;55.780;37.520;2023-04-27T05:28:06;99287.63;;;25.17;34.55
61205;BME280;47068;55.780;37.520;2023-04-27T05:30:32;99301.31;;;25.42;32.39
61205;BME280;47068;55.780;37.520;2023-04-27T05:32:58;99294.19;;;25.31;32.76
61205;BME280;47068;55.780;37.520;2023-04-27T05:35:23;99300.41;;;25.01;32.96
61205;BME280;47068;55.780;37.520;2023-04-27T05:37:49;99297.97;;;25.10;31.92
61205;BME280;47068;55.780;37.520;2023-04-27T05:40:14;99294.59;;;24.88;32.88
61205;BME280;47068;55.780;37.520;2023-04-27T05:42:40;99294.94;;;25.01;31.45
61205;BME280;47068;55.780;37.520;2023-04-27T05:45:06;99286.78;;;25.06;31.49
61205;BME280;47068;55.780;37.520;2023-04-27T05:47:32;99290.69;;;25.51;30.66
61205;BME280;47068;55.780;37.520;2023-04-27T05:49:57;99287.19;;;25.61;30.88
61205;BME280;47068;55.780;37.520;2023-04-27T05:52:22;99286.88;;;26.03;29.68
61205;BME280;47068;55.780;37.520;2023-04-27T05:54:53;99263.00;;;26.74;28.90
61205;BME280;47068;55.780;37.520;2023-04-27T05:57:19;99288.44;;;27.19;28.78
61205;BME280;47068;55.780;37.520;2023-04-27T05:59:45;99278.53;;;27.72;28.19
61205;BME280;47068;55.780;37.520;2023-04-27T06:02:10;99278.59;;;28.96;26.61
61205;BME280;47068;55.780;37.520;2023-04-27T06:04:35;99278.38;;;30.73;24.39
61205;BME280;47068;55.780;37.520;2023-04-27T06:07:06;99275.94;;;32.24;22.85
61205;BME280;47068;55.780;37.520;2023-04-27T06:09:31;99268.16;;;33.74;21.34
61205;BME280;47068;55.780;37.520;2023-04-27T06:11:57;99278.94;;;35.61;17.93
61205;BME280;47068;55.780;37.520;2023-04-27T06:14:23;99283.84;;;36.90;17.36
61205;BME280;47068;55.780;37.520;2023-04-27T06:16:49;99278.00;;;38.31;16.42
61205;BME280;47068;55.780;37.520;2023-04-27T06:19:14;99276.66;;;39.23;14.84
61205;BME280;47068;55.780;37.520;2023-04-27T06:21:40;99278.06;;;39.90;14.55
61205;BME280;47068;55.780;37.520;2023-04-27T06:24:05;99278.44;;;40.31;13.71
61205;BME280;47068;55.780;37.520;2023-04-27T06:26:31;99280.34;;;40.99;12.51
61205;BME280;47068;55.780;37.520;2023-04-27T06:28:56;99272.22;;;41.46;12.32
61205;BME280;47068;55.780;37.520;2023-04-27T06:31:22;99259.16;;;41.87;12.07
61205;BME280;47068;55.780;37.520;2023-04-27T06:33:47;99276.75;;;42.28;11.29
61205;BME280;47068;55.780;37.520;2023-04-27T06:36:13;99275.00;;;42.57;11.14
61205;BME280;47068;55.780;37.520;2023-04-27T06:38:38;99270.59;;;41.42;10.65
61205;BME280;47068;55.780;37.520;2023-04-27T06:41:04;99270.91;;;41.66;11.20
61205;BME280;47068;55.780;37.520;2023-04-27T06:43:30;99254.50;;;41.98;11.06
61205;BME280;47068;55.780;37.520;2023-04-27T06:45:55;99267.19;;;42.73;10.43
61205;BME280;47068;55.780;37.520;2023-04-27T06:48:21;99261.91;;;43.27;9.75
61205;BME280;47068;55.780;37.520;2023-04-27T06:50:46;99221.72;;;44.20;9.33
61205;BME280;47068;55.780;37.520;2023-04-27T06:53:12;99265.81;;;44.83;9.00
61205;BME280;47068;55.780;37.520;2023-04-27T06:55:38;99256.16;;;45.02;8.73
61205;BME280;47068;55.780;37.520;2023-04-27T06:58:03;99184.16;;;42.99;9.45
61205;BME280;47068;55.780;37.520;2023-04-27T07:00:30;99260.97;;;43.05;9.67
61205;BME280;47068;55.780;37.520;2023-04-27T07:02:55;99259.78;;;44.17;9.60
61205;BME280;47068;55.780;37.520;2023-04-27T07:05:21;99254.59;;;44.05;9.45
61205;BME280;47068;55.780;37.520;2023-04-27T07:07:47;99259.56;;;43.46;9.53
61205;BME280;47068;55.780;37.520;2023-04-27T07:10:12;99264.34;;;43.39;10.15
61205;BME280;47068;55.780;37.520;2023-04-27T07:12:38;99232.34;;;43.43;9.64
61205;BME280;47068;55.780;37.520;2023-04-27T07:15:05;99230.03;;;43.59;8.66
61205;BME280;47068;55.780;37.520;2023-04-27T07:17:34;99248.03;;;45.36;8.30
61205;BME280;47068;55.780;37.520;2023-04-27T07:20:03;99245.91;;;46.72;7.24
61205;BME280;47068;55.780;37.520;2023-04-27T07:22:30;99247.91;;;47.76;7.04
61205;BME280;47068;55.780;37.520;2023-04-27T07:24:56;99244.13;;;48.40;6.28
61205;BME280;47068;55.780;37.520;2023-04-27T07:27:21;99256.84;;;49.15;6.37
61205;BME280;47068;55.780;37.520;2023-04-27T07:29:47;99255.91;;;49.21;5.50
61205;BME280;47068;55.780;37.520;2023-04-27T07:32:12;99243.41;;;48.33;5.90
61205;BME280;47068;55.780;37.520;2023-04-27T07:34:39;99244.44;;;48.19;6.57
61205;BME280;47068;55.780;37.520;2023-04-27T07:37:05;99240.44;;;48.16;6.65
61205;BME280;47068;55.780;37.520;2023-04-27T07:39:31;99250.56;;;48.84;6.01
61205;BME280;47068;55.780;37.520;2023-04-27T07:41:56;99243.81;;;48.31;5.97
61205;BME280;47068;55.780;37.520;2023-04-27T07:44:22;99245.03;;;46.78;6.72
61205;BME280;47068;55.780;37.520;2023-04-27T07:46:47;99262.72;;;45.65;7.60
61205;BME280;47068;55.780;37.520;2023-04-27T07:49:14;99253.81;;;44.72;7.51
61205;BME280;47068;55.780;37.520;2023-04-27T07:51:40;99246.34;;;43.40;8.40
61205;BME280;47068;55.780;37.520;2023-04-27T07:54:05;99229.47;;;42.13;9.11
61205;BME280;47068;55.780;37.520;2023-04-27T07:56:32;99246.84;;;42.80;9.34
61205;BME280;47068;55.780;37.520;2023-04-27T07:58:57;99246.13;;;42.42;9.09
61205;BME280;47068;55.780;37.520;2023-04-27T08:01:23;99246.59;;;42.04;9.43
61205;BME280;47068;55.780;37.520;2023-04-27T08:03:49;99252.50;;;41.62;10.39
61205;BME280;47068;55.780;37.520;2023-04-27T08:06:14;99255.66;;;41.01;10.24
61205;BME280;47068;55.780;37.520;2023-04-27T08:08:40;99249.28;;;39.63;11.04
61205;BME280;47068;55.780;37.520;2023-04-27T08:11:10;99246.00;;;37.50;12.57
61205;BME280;47068;55.780;37.520;2023-04-27T08:13:36;99232.00;;;35.31;14.96
61205;BME280;47068;55.780;37.520;2023-04-27T08:16:01;99250.44;;;33.92;15.50
61205;BME280;47068;55.780;37.520;2023-04-27T08:18:27;99238.06;;;32.69;16.80
61205;BME280;47068;55.780;37.520;2023-04-27T08:20:53;99237.22;;;31.67;18.60
61205;BME280;47068;55.780;37.520;2023-04-27T08:23:18;99249.56;;;30.84;18.87
61205;BME280;47068;55.780;37.520;2023-04-27T08:25:44;99232.94;;;29.80;19.96
61205;BME280;47068;55.780;37.520;2023-04-27T08:28:09;99248.19;;;29.16;19.91
61205;BME280;47068;55.780;37.520;2023-04-27T08:30:35;99251.84;;;28.45;20.82
61205;BME280;47068;55.780;37.520;2023-04-27T08:33:00;99248.88;;;27.50;21.36
61205;BME280;47068;55.780;37.520;2023-04-27T08:35:26;99253.63;;;26.95;22.35
61205;BME280;47068;55.780;37.520;2023-04-27T08:37:51;99246.69;;;26.59;23.81
61205;BME280;47068;55.780;37.520;2023-04-27T08:40:18;99235.63;;;26.20;24.20
61205;BME280;47068;55.780;37.520;2023-04-27T08:42:58;99240.81;;;25.96;24.49
61205;BME280;47068;55.780;37.520;2023-04-27T08:45:25;99255.00;;;26.03;24.93
61205;BME280;47068;55.780;37.520;2023-04-27T08:47:51;99249.00;;;26.01;24.99
61205;BME280;47068;55.780;37.520;2023-04-27T08:50:17;99245.19;;;25.97;25.16
61205;BME280;47068;55.780;37.520;2023-04-27T08:52:46;99250.09;;;25.95;25.62
61205;BME280;47068;55.780;37.520;2023-04-27T08:55:12;99261.03;;;25.85;26.16
61205;BME280;47068;55.780;37.520;2023-04-27T08:57:37;99266.50;;;25.65;25.74
61205;BME280;47068;55.780;37.520;2023-04-27T09:00:04;99242.19;;;25.43;26.55
61205;BME280;47068;55.780;37.520;2023-04-27T09:02:46;99254.97;;;25.27;26.68
61205;BME280;47068;55.780;37.520;2023-04-27T09:05:16;99259.88;;;25.10;27.62
61205;BME280;47068;55.780;37.520;2023-04-27T09:07:43;99259.31;;;25.08;28.60
61205;BME280;47068;55.780;37.520;2023-04-27T09:10:08;99262.59;;;25.10;29.38
61205;BME280;47068;55.780;37.520;2023-04-27T09:12:34;99255.16;;;24.90;29.60
61205;BME280;47068;55.780;37.520;2023-04-27T09:15:02;99263.78;;;24.72;29.39
61205;BME280;47068;55.780;37.520;2023-04-27T09:17:29;99265.03;;;24.49;30.18
61205;BME280;47068;55.780;37.520;2023-04-27T09:20:10;99263.28;;;24.23;29.42
61205;BME280;47068;55.780;37.520;2023-04-27T09:22:44;99240.53;;;23.97;29.89
61205;BME280;47068;55.780;37.520;2023-04-27T09:25:21;99278.38;;;24.09;30.57
61205;BME280;47068;55.780;37.520;2023-04-27T09:27:47;99268.91;;;24.11;30.49
61205;BME280;47068;55.780;37.520;2023-04-27T09:30:13;99265.94;;;24.13;30.46
61205;BME280;47068;55.780;37.520;2023-04-27T09:32:39;99220.00;;;23.74;30.40
61205;BME280;47068;55.780;37.520;2023-04-27T09:35:20;99258.75;;;23.97;30.04
61205;BME280;47068;55.780;37.520;2023-04-27T09:37:47;99260.03;;;23.89;30.90
61205;BME280;47068;55.780;37.520;2023-04-27T09:40:12;99238.75;;;23.76;31.34
61205;BME280;47068;55.780;37.520;2023-04-27T09:42:38;99260.75;;;23.74;31.54
61205;BME280;47068;55.780;37.520;2023-04-27T09:45:06;99263.34;;;23.59;31.87
61205;BME280;47068;55.780;37.520;2023-04-27T09:47:33;99264.81;;;23.45;32.10
61205;BME280;47068;55.780;37.520;2023-04-27T09:50:00;99265.81;;;23.34;32.57
61205;BME280;47068;55.780;37.520;2023-04-27T09:52:27;99252.97;;;23.51;33.31
61205;BME280;47068;55.780;37.520;2023-04-27T09:54:53;99259.53;;;23.60;32.45
61205;BME280;47068;55.780;37.520;2023-04-27T10:00:12;99238.38;;;23.62;30.04
61205;BME280;47068;55.780;37.520;2023-04-27T10:03:14;99263.38;;;24.01;30.44
61205;BME280;47068;55.780;37.520;2023-04-27T10:08:28;99263.88;;;23.56;28.75
61205;BME280;47068;55.780;37.520;2023-04-27T10:10:54;99274.56;;;23.41;29.38
61205;BME280;47068;55.780;37.520;2023-04-27T10:13:24;99268.56;;;23.39;29.27
61205;BME280;47068;55.780;37.520;2023-04-27T10:15:50;99270.63;;;23.27;30.15
61205;BME280;47068;55.780;37.520;2023-04-27T10:18:29;99257.56;;;23.24;30.32
61205;BME280;47068;55.780;37.520;2023-04-27T10:20:57;99260.84;;;23.26;29.91
61205;BME280;47068;55.780;37.520;2023-04-27T10:23:44;99264.38;;;23.26;30.41
61205;BME280;47068;55.780;37.520;2023-04-27T10:26:10;99270.25;;;23.45;30.80
61205;BME280;47068;55.780;37.520;2023-04-27T10:28:39;99252.34;;;23.44;31.59
61205;BME280;47068;55.780;37.520;2023-04-27T10:31:09;99249.09;;;23.47;31.99
61205;BME280;47068;55.780;37.520;2023-04-27T10:33:41;99263.00;;;23.50;32.22
61205;BME280;47068;55.780;37.520;2023-04-27T10:36:13;99243.22;;;23.28;32.15
61205;BME280;47068;55.780;37.520;2023-04-27T10:38:39;99258.78;;;23.11;32.06
61205;BME280;47068;55.780;37.520;2023-04-27T10:41:12;99259.09;;;22.88;32.73
61205;BME280;47068;55.780;37.520;2023-04-27T10:43:38;99248.63;;;22.53;32.29
61205;BME280;47068;55.780;37.520;2023-04-27T10:46:12;99266.44;;;22.49;32.05
61205;BME280;47068;55.780;37.520;2023-04-27T10:48:39;99247.72;;;22.25;32.08
61205;BME280;47068;55.780;37.520;2023-04-27T10:51:05;99277.19;;;22.22;32.56
61205;BME280;47068;55.780;37.520;2023-04-27T10:53:34;99279.03;;;22.16;33.21
61205;BME280;47068;55.780;37.520;2023-04-27T10:56:00;99255.56;;;22.05;33.45
61205;BME280;47068;55.780;37.520;2023-04-27T10:58:26;99281.66;;;22.11;34.24
61205;BME280;47068;55.780;37.520;2023-04-27T11:00:51;99278.38;;;22.09;36.92
61205;BME280;47068;55.780;37.520;2023-04-27T11:03:18;99292.16;;;21.91;37.98
61205;BME280;47068;55.780;37.520;2023-04-27T11:05:45;99290.34;;;21.80;39.23
61205;BME280;47068;55.780;37.520;2023-04-27T11:08:16;99292.56;;;21.83;39.48
61205;BME280;47068;55.780;37.520;2023-04-27T11:10:44;99288.53;;;21.85;40.05
61205;BME280;47068;55.780;37.520;2023-04-27T11:13:12;99290.38;;;21.96;37.68
61205;BME280;47068;55.780;37.520;2023-04-27T11:18:16;99287.56;;;22.08;36.63
61205;BME280;47068;55.780;37.520;2023-04-27T11:20:43;99281.25;;;22.03;36.07
61205;BME280;47068;55.780;37.520;2023-04-27T11:23:09;99286.97;;;22.06;36.25
61205;BME280;47068;55.780;37.520;2023-04-27T11:25:35;99302.44;;;22.06;36.36
61205;BME280;47068;55.780;37.520;2023-04-27T11:28:01;99285.09;;;21.90;36.17
61205;BME280;47068;55.780;37.520;2023-04-27T11:30:26;99300.84;;;21.93;36.15
61205;BME280;47068;55.780;37.520;2023-04-27T11:32:52;99299.69;;;21.89;36.38
61205;BME280;47068;55.780;37.520;2023-04-27T11:35:17;99305.94;;;21.89;36.34
61205;BME280;47068;55.780;37.520;2023-04-27T11:37:43;99304.03;;;21.73;36.19
61205;BME280;47068;55.780;37.520;2023-04-27T11:40:09;99309.69;;;21.72;36.66
61205;BME280;47068;55.780;37.520;2023-04-27T11:42:38;99308.25;;;21.64;36.53
61205;BME280;47068;55.780;37.520;2023-04-27T11:45:10;99292.59;;;21.38;36.81
61205;BME280;47068;55.780;37.520;2023-04-27T11:47:35;99302.38;;;21.39;37.21
61205;BME280;47068;55.780;37.520;2023-04-27T11:50:04;99274.13;;;21.18;37.37
61205;BME280;47068;55.780;37.520;2023-04-27T11:52:33;99294.91;;;21.29;37.61
61205;BME280;47068;55.780;37.520;2023-04-27T11:55:00;99276.25;;;21.16;37.53
61205;BME280;47068;55.780;37.520;2023-04-27T11:57:31;99296.44;;;21.25;37.48
61205;BME280;47068;55.780;37.520;2023-04-27T11:59:58;99292.91;;;21.25;37.89
61205;BME280;47068;55.780;37.520;2023-04-27T12:02:28;99286.81;;;21.17;38.05
61205;BME280;47068;55.780;37.520;2023-04-27T12:04:54;99280.31;;;21.02;38.04
61205;BME280;47068;55.780;37.520;2023-04-27T12:07:20;99287.28;;;20.86;38.00
61205;BME280;47068;55.780;37.520;2023-04-27T12:09:45;99285.69;;;20.73;38.56
61205;BME280;47068;55.780;37.520;2023-04-27T12:12:11;99282.13;;;20.84;38.74
61205;BME280;47068;55.780;37.520;2023-04-27T12:14:38;99280.19;;;20.97;37.87
61205;BME280;47068;55.780;37.520;2023-04-27T12:17:04;99284.44;;;20.93;37.61
61205;BME280;47068;55.780;37.520;2023-04-27T12:19:30;99279.72;;;21.00;38.13
61205;BME280;47068;55.780;37.520;2023-04-27T12:21:56;99255.28;;;20.95;36.96
61205;BME280;47068;55.780;37.520;2023-04-27T12:24:22;99286.00;;;21.17;36.84
61205;BME280;47068;55.780;37.520;2023-04-27T12:26:48;99278.13;;;21.15;36.55
61205;BME280;47068;55.780;37.520;2023-04-27T12:29:13;99278.28;;;21.09;36.66
61205;BME280;47068;55.780;37.520;2023-04-27T12:31:39;99272.50;;;21.05;37.48
61205;BME280;47068;55.780;37.520;2023-04-27T12:34:05;99266.84;;;21.18;37.61
61205;BME280;47068;55.780;37.520;2023-04-27T12:36:30;99269.38;;;21.25;37.83
61205;BME280;47068;55.780;37.520;2023-04-27T12:38:58;99279.00;;;21.33;37.71
61205;BME280;47068;55.780;37.520;2023-04-27T12:41:24;99274.09;;;21.30;37.15
61205;BME280;47068;55.780;37.520;2023-04-27T12:43:50;99263.38;;;21.23;37.04
61205;BME280;47068;55.780;37.520;2023-04-27T12:46:15;99274.00;;;21.13;36.82
61205;BME280;47068;55.780;37.520;2023-04-27T12:48:42;99257.94;;;21.06;37.02
61205;BME280;47068;55.780;37.520;2023-04-27T12:51:08;99266.38;;;21.10;36.45
61205;BME280;47068;55.780;37.520;2023-04-27T12:53:33;99268.25;;;21.09;36.53
61205;BME280;47068;55.780;37.520;2023-04-27T12:56:00;99244.06;;;21.03;36.62